Time;durP1;ratioP1;P1;durP2;ratioP2;P2;SDS_P1;SDS_P2;PMS_P1;PMS_P2;Temp;Humidity;BMP_temperature;BMP_pressure;BME280_temperature;BME280_humidity;BME280_pressure;Samples;Min_cycle;Max_cycle;Signal;HPM_P1;HPM_P2
2022/06/20 00:01:54;;;;;;;11.40;3.80;;;;;;;21.14;45.68;100489.86;123521;1099;105026;-77
2022/06/20 00:04:26;;;;;;;6.63;3.50;;;;;;;21.14;46.39;100489.86;123481;1099;104354;-77
2022/06/20 00:06:57;;;;;;;7.97;3.67;;;;;;;21.12;46.37;100483.66;123476;1099;104316;-78
2022/06/20 00:09:29;;;;;;;8.17;3.67;;;;;;;21.07;45.86;100477.49;123414;1099;104402;-77
2022/06/20 00:12:01;;;;;;;7.60;3.70;;;;;;;21.01;46.88;100474.87;123508;1099;104274;-78
2022/06/20 00:14:33;;;;;;;7.10;3.77;;;;;;;20.97;46.32;100473.11;123468;1099;104280;-78
2022/06/20 00:17:10;;;;;;;7.07;3.50;;;;;;;20.95;46.53;100472.25;123468;1099;104406;-77
2022/06/20 00:19:42;;;;;;;5.43;3.50;;;;;;;20.95;46.92;100469.58;123491;1099;104741;-78
2022/06/20 00:22:14;;;;;;;5.90;3.60;;;;;;;20.95;47.27;100466.91;123205;1099;104414;-77
2022/06/20 00:24:47;;;;;;;6.23;3.80;;;;;;;20.94;47.20;100467.80;123206;1098;104252;-77
2022/06/20 00:27:18;;;;;;;7.27;3.87;;;;;;;20.91;47.76;100460.73;123205;1099;104398;-77
2022/06/20 00:29:51;;;;;;;11.63;3.30;;;;;;;20.91;46.93;100460.73;123189;1101;104450;-77
2022/06/20 00:32:22;;;;;;;7.13;3.70;;;;;;;20.91;47.42;100443.81;123189;1099;104389;-77
2022/06/20 00:34:54;;;;;;;6.33;3.83;;;;;;;20.92;47.08;100448.27;123202;1099;104342;-77
2022/06/20 00:37:26;;;;;;;4.10;3.30;;;;;;;20.92;48.00;100453.60;123217;1099;104339;-76
2022/06/20 00:39:57;;;;;;;8.87;3.37;;;;;;;20.88;47.26;100441.17;123189;1099;104252;-77
2022/06/20 00:42:30;;;;;;;6.40;3.70;;;;;;;20.83;47.88;100447.45;123163;1099;104485;-77
2022/06/20 00:45:05;;;;;;;4.92;3.42;;;;;;;20.75;48.29;100438.59;123212;1099;104406;-77
2022/06/20 00:47:37;;;;;;;5.13;3.40;;;;;;;20.75;48.39;100437.72;123266;1099;104431;-77
2022/06/20 00:50:18;;;;;;;7.07;3.43;;;;;;;20.73;48.62;100435.06;123201;1099;104401;-77
2022/06/20 00:52:53;;;;;;;5.23;3.50;;;;;;;20.72;48.16;100432.41;123281;1099;104415;-77
2022/06/20 00:55:30;;;;;;;3.97;3.23;;;;;;;20.71;48.75;100430.63;123457;1098;104262;-77
2022/06/20 00:58:08;;;;;;;4.63;3.40;;;;;;;20.68;48.06;100425.31;123497;1098;104270;-77
2022/06/20 01:00:42;;;;;;;5.17;3.50;;;;;;;20.69;48.13;100425.31;123449;1099;104245;-77
2022/06/20 01:03:21;;;;;;;6.05;3.85;;;;;;;20.69;49.19;100429.77;123491;1099;104318;-78
2022/06/20 01:05:57;;;;;;;5.27;3.57;;;;;;;20.67;48.43;100427.11;123452;1099;104610;-77
2022/06/20 01:08:31;;;;;;;7.57;3.60;;;;;;;20.65;49.22;100429.78;123475;1099;104419;-78
2022/06/20 01:11:06;;;;;;;8.07;4.00;;;;;;;20.62;49.07;100421.78;123480;1099;104306;-77
2022/06/20 01:13:37;;;;;;;6.37;3.70;;;;;;;20.60;48.83;100415.58;123527;1099;104345;-77
2022/06/20 01:16:21;;;;;;;6.30;3.57;;;;;;;20.56;49.33;100410.28;123499;1099;104249;-77
2022/06/20 01:18:54;;;;;;;3.65;3.30;;;;;;;20.54;49.14;100412.08;123525;1099;104644;-78
2022/06/20 01:21:30;;;;;;;7.63;3.67;;;;;;;20.51;49.17;100417.43;123508;1099;104287;-77
2022/06/20 01:24:21;;;;;;;8.93;4.13;;;;;;;20.49;49.46;100422.77;123500;1099;104283;-77
2022/06/20 01:26:58;;;;;;;6.20;3.70;;;;;;;20.46;49.90;100421.00;123480;1099;104304;-77
2022/06/20 01:29:29;;;;;;;7.00;3.90;;;;;;;20.43;50.09;100425.47;123544;1099;104679;-77
2022/06/20 01:32:03;;;;;;;9.03;3.90;;;;;;;20.39;49.64;100421.05;123477;1099;104389;-77
2022/06/20 01:34:35;;;;;;;4.22;3.65;;;;;;;20.34;49.87;100423.73;123469;1099;104242;-77
2022/06/20 01:37:25;;;;;;;7.40;4.03;;;;;;;20.29;50.47;100428.22;123461;1099;104355;-77
2022/06/20 01:40:01;;;;;;;8.45;4.20;;;;;;;20.27;49.82;100420.23;123548;1099;104341;-77
2022/06/20 01:42:33;;;;;;;8.63;4.00;;;;;;;20.25;49.81;100421.12;123529;1099;104725;-77
2022/06/20 01:45:57;;;;;;;8.87;4.90;;;;;;;20.24;50.31;100417.58;123473;1099;104249;-77
2022/06/20 01:48:07;;;;;;;9.57;5.17;;;;;;;20.22;50.74;100416.68;123440;1099;104358;-77
2022/06/20 01:50:41;;;;;;;9.67;4.90;;;;;;;20.21;50.08;100414.93;123477;1099;104269;-77
2022/06/20 01:53:17;;;;;;;13.10;5.27;;;;;;;20.20;50.18;100417.60;123671;1099;111929;-77
2022/06/20 01:55:53;;;;;;;8.23;5.00;;;;;;;20.17;50.65;100412.29;123497;1099;104342;-77
2022/06/20 01:58:31;;;;;;;9.20;4.90;;;;;;;20.10;50.89;100412.32;123474;1098;104290;-77
2022/06/20 02:01:04;;;;;;;9.50;4.60;;;;;;;20.08;51.43;100413.20;123458;1099;104355;-76
2022/06/20 02:03:39;;;;;;;14.37;5.17;;;;;;;20.04;50.45;100424.75;123513;1099;104322;-77
2022/06/20 02:06:14;;;;;;;10.70;4.93;;;;;;;20.02;50.78;100426.55;123506;1099;104350;-77
2022/06/20 02:08:50;;;;;;;9.07;5.10;;;;;;;19.98;51.37;100423.02;123567;1099;104264;-77
2022/06/20 02:11:26;;;;;;;13.00;5.43;;;;;;;19.91;51.30;100421.27;123510;1098;104732;-77
2022/06/20 02:14:02;;;;;;;11.50;5.43;;;;;;;19.86;51.14;100429.27;123438;1099;108090;-78
2022/06/20 02:16:40;;;;;;;14.17;5.77;;;;;;;19.86;51.20;100431.06;123480;1099;104338;-77
2022/06/20 02:19:16;;;;;;;12.83;5.60;;;;;;;19.81;51.37;100436.40;123507;1099;104264;-77
2022/06/20 02:21:48;;;;;;;10.80;5.20;;;;;;;19.79;51.28;100439.95;123496;1099;104261;-77
2022/06/20 02:24:24;;;;;;;14.53;5.23;;;;;;;19.75;51.14;100437.26;123478;1098;104261;-77
2022/06/20 02:27:01;;;;;;;12.60;5.50;;;;;;;19.73;51.75;100444.37;123553;1099;104261;-77
2022/06/20 02:29:33;;;;;;;12.57;5.57;;;;;;;19.73;51.57;100447.03;123534;1099;104239;-77
2022/06/20 02:32:11;;;;;;;10.23;5.43;;;;;;;19.73;51.84;100447.03;123448;1099;104239;-77
2022/06/20 02:34:43;;;;;;;12.00;5.47;;;;;;;19.73;51.79;100452.36;123501;1098;104335;-77
2022/06/20 02:37:20;;;;;;;15.23;5.90;;;;;;;19.74;51.64;100445.25;123515;1099;104439;-77
2022/06/20 02:39:54;;;;;;;13.15;5.50;;;;;;;19.78;51.84;100459.50;123411;1099;104489;-77
2022/06/20 02:42:30;;;;;;;11.57;5.50;;;;;;;19.78;51.23;100456.83;123481;1099;104265;-77
2022/06/20 02:45:04;;;;;;;20.00;5.50;;;;;;;19.79;51.98;100450.59;123508;1099;104357;-77
2022/06/20 02:47:39;;;;;;;15.30;5.60;;;;;;;19.80;52.04;100453.25;123577;1099;104351;-77
2022/06/20 02:50:12;;;;;;;16.10;5.70;;;;;;;19.82;51.70;100461.23;123484;1099;104693;-77
2022/06/20 02:52:48;;;;;;;13.67;5.60;;;;;;;19.82;52.16;100463.90;123484;1099;104262;-77
2022/06/20 02:55:22;;;;;;;14.53;5.77;;;;;;;19.84;51.88;100464.80;123500;1099;104283;-77
2022/06/20 02:57:56;;;;;;;13.62;5.33;;;;;;;19.84;52.33;100468.34;123501;1099;104281;-77
2022/06/20 03:00:35;;;;;;;17.97;5.47;;;;;;;19.86;52.47;100469.21;123476;1099;104265;-77
2022/06/20 03:03:11;;;;;;;22.90;5.70;;;;;;;19.88;52.39;100474.53;123484;1099;104399;-79
2022/06/20 03:05:43;;;;;;;37.03;7.97;;;;;;;19.89;51.95;100469.20;123484;1099;104387;-77
2022/06/20 03:08:16;;;;;;;82.13;16.20;;;;;;;19.91;52.74;100469.20;123593;1099;104310;-78
2022/06/20 03:10:50;;;;;;;51.10;10.05;;;;;;;19.95;52.62;100470.09;123841;1099;104219;-77
2022/06/20 03:13:24;;;;;;;58.33;11.10;;;;;;;19.99;52.75;100477.16;123720;1099;104248;-78
2022/06/20 03:15:54;;;;;;;;;;;;;;;19.98;51.85;100478.95;123718;1099;104293;-78
2022/06/20 03:18:26;;;;;;;30.40;6.43;;;;;;;20.01;53.03;100472.74;123722;1099;104364;-77
2022/06/20 03:20:57;;;;;;;19.40;6.05;;;;;;;20.04;52.49;100470.03;123682;1099;104733;-76
2022/06/20 03:23:31;;;;;;;18.10;5.37;;;;;;;20.08;52.57;100472.69;123648;1098;104319;-77
2022/06/20 03:26:03;;;;;;;;;;;;;;;20.08;51.78;100464.69;123550;1099;104303;-79
2022/06/20 03:28:35;;;;;;;16.97;5.20;;;;;;;20.13;52.11;100459.34;123521;1099;104446;-77
2022/06/20 03:31:10;;;;;;;8.03;4.70;;;;;;;20.15;52.19;100459.34;123476;1099;104379;-77
2022/06/20 03:33:42;;;;;;;12.27;5.30;;;;;;;20.17;52.52;100460.24;123503;1099;104245;-77
2022/06/20 03:36:17;;;;;;;14.23;5.17;;;;;;;20.20;52.26;100455.77;123509;1099;104261;-77
2022/06/20 03:38:50;;;;;;;11.40;5.20;;;;;;;20.25;52.76;100458.42;123526;1099;104239;-77
2022/06/20 03:41:26;;;;;;;12.75;4.65;;;;;;;20.28;52.88;100453.08;123579;1098;104284;-77
2022/06/20 03:44:02;;;;;;;10.97;5.10;;;;;;;20.34;53.16;100452.17;123464;1099;104680;-77
2022/06/20 03:46:42;;;;;;;12.73;5.47;;;;;;;20.38;52.89;100448.58;123552;1099;104695;-77
2022/06/20 03:49:21;;;;;;;10.00;4.63;;;;;;;20.40;53.01;100450.34;123649;1099;104683;-78
2022/06/20 03:51:57;;;;;;;15.90;5.50;;;;;;;20.46;52.83;100450.31;123687;1099;104239;-77
2022/06/20 03:54:46;;;;;;;15.27;5.83;;;;;;;20.53;52.35;100443.16;123782;1099;104233;-78
2022/06/20 03:57:24;;;;;;;22.47;5.57;;;;;;;20.59;52.31;100442.25;123646;1099;104887;-77
2022/06/20 04:00:01;;;;;;;13.87;5.20;;;;;;;20.64;53.39;100435.09;123711;1099;104322;-77
2022/06/20 04:02:40;;;;;;;10.43;4.60;;;;;;;20.69;52.85;100437.77;123732;1099;104351;-77
2022/06/20 04:05:19;;;;;;;12.40;4.93;;;;;;;20.72;52.28;100433.28;123626;1098;104251;-77
2022/06/20 04:07:56;;;;;;;14.17;5.17;;;;;;;20.77;53.14;100435.92;123642;1099;104306;-77
2022/06/20 04:13:28;;;;;;;10.15;5.05;;;;;;;20.84;53.28;100432.32;123735;1099;104335;-78
2022/06/20 04:16:06;;;;;;;11.47;5.40;;;;;;;20.89;53.42;100419.83;123570;1099;104274;-79
2022/06/20 04:18:45;;;;;;;13.13;4.80;;;;;;;20.95;52.98;100419.78;124206;1099;104267;-79
2022/06/20 04:21:24;;;;;;;11.40;5.10;;;;;;;21.02;53.79;100420.63;124089;1098;104341;-80
2022/06/20 04:24:05;;;;;;;11.97;5.10;;;;;;;21.08;53.19;100427.67;124173;1099;104546;-80
2022/06/20 04:26:41;;;;;;;13.67;5.07;;;;;;;21.14;53.34;100428.50;124339;1099;104347;-78
2022/06/20 04:29:18;;;;;;;11.00;5.10;;;;;;;21.21;53.11;100424.02;124624;1099;104169;-78
2022/06/20 04:31:53;;;;;;;9.37;5.00;;;;;;;21.29;53.94;100419.48;123886;1099;104253;-78
2022/06/20 04:34:32;;;;;;;12.90;5.60;;;;;;;21.34;53.74;100406.97;124052;1099;104341;-78
2022/06/20 04:37:11;;;;;;;18.83;5.20;;;;;;;21.39;53.78;100412.26;123724;1099;108132;-76
2022/06/20 04:39:49;;;;;;;12.00;5.27;;;;;;;21.46;53.15;100410.44;123778;1099;104252;-78
2022/06/20 04:42:27;;;;;;;10.00;4.87;;;;;;;21.52;53.20;100415.74;123964;1099;104284;-79
2022/06/20 04:45:02;;;;;;;13.43;4.80;;;;;;;21.60;52.97;100420.97;123880;1099;104310;-78
2022/06/20 04:47:41;;;;;;;16.47;4.97;;;;;;;21.67;53.56;100412.00;123772;1097;104293;-78
2022/06/20 04:50:20;;;;;;;9.93;5.13;;;;;;;21.74;53.10;100416.37;123835;1099;104415;-78
2022/06/20 04:52:57;;;;;;;9.10;4.77;;;;;;;21.80;53.46;100413.64;123850;1099;104162;-78
2022/06/20 04:55:31;;;;;;;7.60;4.60;;;;;;;21.88;53.96;100417.09;123932;1099;104258;-78
2022/06/20 04:58:07;;;;;;;8.67;4.33;;;;;;;21.95;53.80;100415.22;124025;1099;104334;-78
2022/06/20 05:00:43;;;;;;;7.23;4.43;;;;;;;22.02;53.14;100422.27;124391;1099;102945;-78
2022/06/20 05:03:21;;;;;;;10.53;4.53;;;;;;;22.07;53.27;100422.20;124789;1099;102255;-78
2022/06/20 05:05:56;;;;;;;11.45;4.60;;;;;;;22.11;53.49;100418.60;124356;1098;104271;-77
2022/06/20 05:08:33;;;;;;;7.67;4.20;;;;;;;22.17;52.75;100415.81;124509;1099;104293;-77
2022/06/20 05:11:11;;;;;;;6.77;4.53;;;;;;;22.22;53.02;100418.42;124222;1098;104328;-78
2022/06/20 05:13:48;;;;;;;12.23;4.80;;;;;;;22.29;53.03;100424.59;124609;1099;104236;-78
2022/06/20 05:16:27;;;;;;;9.23;3.90;;;;;;;22.35;53.18;100420.07;124533;1099;104187;-78
2022/06/20 05:19:08;;;;;;;5.87;4.00;;;;;;;22.43;53.00;100423.51;124227;1099;104272;-78
2022/06/20 05:21:50;;;;;;;7.30;3.80;;;;;;;22.50;52.91;100413.63;124914;1099;104185;-77
2022/06/20 05:24:28;;;;;;;7.50;3.60;;;;;;;22.56;53.44;100418.89;124515;1099;104254;-77
2022/06/20 05:27:07;;;;;;;5.70;3.80;;;;;;;22.62;52.79;100417.89;124612;1099;104268;-77
2022/06/20 05:30:05;;;;;;;;;;;;;;;;;;;;;
2022/06/20 05:32:46;;;;;;;9.77;4.00;;;;;;;22.76;52.81;100407.86;124792;1099;104156;-78
2022/06/20 05:35:30;;;;;;;10.33;3.90;;;;;;;22.83;52.71;100410.43;124452;1099;104293;-78
2022/06/20 05:38:15;;;;;;;7.27;3.97;;;;;;;22.89;52.19;100403.21;124429;1099;104638;-77
2022/06/20 05:40:57;;;;;;;4.83;3.80;;;;;;;22.93;52.15;100406.71;125266;1099;104361;-77
2022/06/20 05:43:31;;;;;;;8.00;4.10;;;;;;;22.97;52.69;100395.93;125741;1099;104307;-76
2022/06/20 05:46:08;;;;;;;10.37;3.90;;;;;;;23.03;52.32;100396.72;125014;1099;102886;-77
2022/06/20 05:48:50;;;;;;;7.83;3.90;;;;;;;23.08;52.75;100403.81;127032;1097;111456;-77
2022/06/20 05:51:40;;;;;;;9.83;3.95;;;;;;;23.13;52.54;100395.70;126902;1099;102563;-77
2022/06/20 05:54:42;;;;;;;9.03;4.00;;;;;;;23.19;52.49;100402.72;126279;1099;103984;-77
2022/06/20 05:57:23;;;;;;;7.13;4.23;;;;;;;23.25;52.07;100392.80;126315;1098;104383;-77
2022/06/20 06:00:01;;;;;;;4.50;3.67;;;;;;;23.33;52.25;100387.31;125062;1099;102719;-77
2022/06/20 06:02:47;;;;;;;8.33;4.00;;;;;;;23.33;52.07;100366.77;125242;1099;104239;-77
2022/06/20 06:05:29;;;;;;;7.37;3.90;;;;;;;23.45;52.41;100368.33;125483;1099;102728;-77
2022/06/20 06:08:11;;;;;;;7.63;3.70;;;;;;;23.50;51.71;100368.25;125202;1099;102945;-77
2022/06/20 06:10:50;;;;;;;8.57;4.40;;;;;;;23.57;51.58;100367.19;126461;1099;102635;-77
2022/06/20 06:13:36;;;;;;;10.73;4.00;;;;;;;23.66;51.78;100367.00;126851;1099;101887;-77
2022/06/20 06:16:49;;;;;;;9.13;4.07;;;;;;;23.75;51.38;100370.40;126755;1098;101880;-77
2022/06/20 06:19:36;;;;;;;;;;;;;;;23.82;51.26;100361.33;126217;1099;102448;-77
2022/06/20 06:22:19;;;;;;;8.90;3.77;;;;;;;23.92;51.28;100360.27;124811;1098;103183;-78
2022/06/20 06:25:05;;;;;;;3.90;3.50;;;;;;;24.02;51.20;100352.90;125935;1099;103150;-77
2022/06/20 06:27:39;;;;;;;5.97;3.50;;;;;;;24.11;50.75;100343.78;125938;1099;104191;-77
2022/06/20 06:30:22;;;;;;;5.10;3.43;;;;;;;24.15;50.56;100337.41;125797;1099;104233;-77
2022/06/20 06:33:05;;;;;;;4.83;3.60;;;;;;;24.23;50.31;100341.69;124645;1099;104166;-76
2022/06/20 06:35:43;;;;;;;6.73;3.33;;;;;;;24.32;50.00;100331.66;124835;1099;104283;-75
2022/06/20 06:38:18;;;;;;;7.17;3.83;;;;;;;24.41;49.96;100324.27;124676;1099;104270;-77
2022/06/20 06:40:52;;;;;;;8.83;3.60;;;;;;;24.50;48.96;100323.17;125147;1099;104239;-76
2022/06/20 06:43:27;;;;;;;;;;;;;;;24.54;48.70;100307.87;124988;1099;104226;-76
2022/06/20 06:46:02;;;;;;;4.17;3.20;;;;;;;24.64;48.45;100309.45;124951;1099;104179;-76
2022/06/20 06:48:41;;;;;;;8.37;3.77;;;;;;;24.72;48.71;100302.08;124823;1099;104355;-76
2022/06/20 06:51:23;;;;;;;7.07;3.40;;;;;;;24.85;48.56;100307.12;124877;1099;104182;-76
2022/06/20 06:54:02;;;;;;;7.05;3.55;;;;;;;24.98;47.98;100302.30;124520;1099;104319;-78
2022/06/20 06:56:42;;;;;;;5.65;3.30;;;;;;;25.10;47.59;100302.88;124828;1099;104169;-77
2022/06/20 06:59:24;;;;;;;8.20;3.30;;;;;;;25.22;47.49;100307.00;126133;1098;104248;-78
2022/06/20 07:02:03;;;;;;;4.47;3.50;;;;;;;25.35;46.76;100301.31;127152;1098;103056;-80
2022/06/20 07:05:02;;;;;;;8.60;4.00;;;;;;;25.47;46.93;100299.15;126504;1097;102816;-79
2022/06/20 07:10:42;;;;;;;6.60;3.33;;;;;;;25.76;45.74;100299.23;124914;1099;111245;-78
2022/06/20 07:13:25;;;;;;;6.43;3.30;;;;;;;25.90;45.46;100298.78;124900;1099;104296;-77
2022/06/20 07:16:03;;;;;;;5.07;3.60;;;;;;;26.04;45.71;100298.39;126856;1098;101939;-78
2022/06/20 07:18:46;;;;;;;4.63;2.80;;;;;;;26.22;44.75;100294.24;125881;1099;103458;-79
2022/06/20 07:21:37;;;;;;;6.80;3.00;;;;;;;26.35;43.17;100295.58;124886;1099;104259;-80
2022/06/20 07:24:33;;;;;;;7.37;2.70;;;;;;;26.55;43.19;100281.47;125976;1099;104220;-80
2022/06/20 07:27:22;;;;;;;7.10;3.37;;;;;;;26.70;43.11;100280.11;125547;1099;104130;-78
2022/06/20 07:30:09;;;;;;;6.10;3.00;;;;;;;26.84;41.63;100282.32;125988;1099;103368;-79
2022/06/20 07:33:01;;;;;;;4.50;2.73;;;;;;;27.03;41.14;100285.23;125731;1099;103758;-79
2022/06/20 07:36:03;;;;;;;7.58;2.85;;;;;;;27.15;40.94;100287.48;126431;1098;102453;-80
2022/06/20 07:38:45;;;;;;;7.30;4.30;;;;;;;27.31;41.05;100281.53;125872;1099;104239;-78
2022/06/20 07:41:23;;;;;;;8.30;3.40;;;;;;;27.47;41.26;100271.95;125876;1099;103088;-77
2022/06/20 07:44:19;;;;;;;3.60;2.70;;;;;;;27.62;40.74;100275.89;125747;1099;104006;-78
2022/06/20 07:47:24;;;;;;;7.80;2.87;;;;;;;27.86;40.28;100270.47;125503;1099;103159;-79
2022/06/20 07:50:07;;;;;;;7.43;2.90;;;;;;;27.99;40.21;100269.08;125926;1099;104166;-77
2022/06/20 07:52:47;;;;;;;6.43;2.90;;;;;;;28.22;39.49;100270.84;124971;1099;104223;-79
2022/06/20 07:55:35;;;;;;;5.50;3.10;;;;;;;28.37;38.79;100271.14;125297;1101;103243;-79
2022/06/20 07:58:23;;;;;;;3.90;2.57;;;;;;;28.49;38.28;100270.63;125438;1102;104414;-80
2022/06/20 08:01:46;;;;;;;2.70;2.33;;;;;;;28.52;36.50;100278.59;125096;1102;104371;-79
2022/06/20 08:08:31;;;;;;;;;;;;;;;;;;;;;
2022/06/20 08:11:39;;;;;;;3.80;2.55;;;;;;;28.91;34.58;100264.34;125179;1100;104129;-78
2022/06/20 08:14:24;;;;;;;2.60;2.40;;;;;;;29.03;34.41;100261.09;125073;1102;104306;-77
2022/06/20 08:17:12;;;;;;;3.33;2.37;;;;;;;29.08;33.84;100263.59;116401;1100;10001385;-77
2022/06/20 08:20:02;;;;;;;6.27;2.70;;;;;;;29.25;33.98;100262.86;125404;1102;104013;-78
2022/06/20 08:22:47;;;;;;;4.10;2.20;;;;;;;29.41;34.19;100254.91;125301;1102;103982;-79
2022/06/20 08:25:35;;;;;;;3.67;2.40;;;;;;;29.55;33.53;100252.43;125199;1101;105482;-79
2022/06/20 08:28:48;;;;;;;;;;;;;;;;;;;;;
2022/06/20 08:31:33;;;;;;;9.60;2.90;;;;;;;29.92;33.00;100241.72;125069;1102;104529;-78
2022/06/20 08:34:22;;;;;;;5.58;2.52;;;;;;;30.01;31.94;100245.78;125345;1102;103998;-79
2022/06/20 08:37:10;;;;;;;3.83;2.47;;;;;;;30.08;32.29;100242.70;125406;1099;103155;-76
2022/06/20 08:39:50;;;;;;;4.20;2.33;;;;;;;30.08;30.29;100239.99;125289;1099;102380;-79
2022/06/20 08:43:08;;;;;;;4.97;2.37;;;;;;;30.15;31.75;100234.28;125202;1099;102185;-79
2022/06/20 08:46:08;;;;;;;2.33;2.13;;;;;;;30.23;31.05;100229.34;125323;1099;104344;-78
2022/06/20 08:49:25;;;;;;;4.13;2.10;;;;;;;30.30;29.90;100215.43;125320;1102;103815;-79
2022/06/20 08:52:32;;;;;;;4.60;2.10;;;;;;;30.31;28.26;100213.63;125176;1102;102755;-80
2022/06/20 08:55:37;;;;;;;4.03;1.93;;;;;;;30.37;28.87;100224.13;125210;1102;104254;-79
2022/06/20 08:58:20;;;;;;;3.40;2.00;;;;;;;30.48;28.43;100215.50;125271;1102;104166;-78
2022/06/20 09:01:09;;;;;;;2.30;2.10;;;;;;;30.53;28.48;100221.53;125170;1102;104254;-78
2022/06/20 09:04:23;;;;;;;3.67;2.00;;;;;;;30.57;27.86;100212.28;125918;1099;102498;-79
2022/06/20 09:07:29;;;;;;;3.80;1.80;;;;;;;30.55;26.72;100206.08;125892;1099;104242;-79
2022/06/20 09:10:45;;;;;;;2.37;1.93;;;;;;;30.69;27.34;100201.78;125476;1099;102294;-79
2022/06/20 09:13:59;;;;;;;5.37;2.03;;;;;;;30.77;26.97;100211.23;125752;1099;104274;-79
2022/06/20 09:17:04;;;;;;;5.13;1.63;;;;;;;30.85;26.78;100201.84;125747;1098;103334;-79
2022/06/20 09:19:58;;;;;;;2.40;1.82;;;;;;;30.97;26.78;100202.08;126134;1099;102606;-79
2022/06/20 09:26:30;;;;;;;3.40;2.12;;;;;;;31.10;25.64;100183.30;126089;1099;103038;-78
2022/06/20 09:29:42;;;;;;;3.50;2.30;;;;;;;31.20;25.73;100186.41;125416;1099;104264;-79
2022/06/20 09:32:50;;;;;;;5.63;2.17;;;;;;;31.28;25.47;100191.41;125777;1098;104163;-80
2022/06/20 09:35:49;;;;;;;4.23;2.10;;;;;;;31.28;25.06;100180.56;125978;1099;104158;-80
2022/06/20 09:38:51;;;;;;;5.90;2.30;;;;;;;31.36;25.22;100183.70;126125;1099;104249;-79
2022/06/20 09:41:38;;;;;;;2.80;2.03;;;;;;;31.43;25.20;100179.70;125781;1099;102972;-79
2022/06/20 09:44:32;;;;;;;2.13;1.63;;;;;;;31.43;24.73;100195.97;126789;1098;101920;-79
2022/06/20 09:47:07;;;;;;;;;;;;;;;31.36;23.09;100183.70;126843;1099;102328;-78
2022/06/20 09:49:47;;;;;;;3.67;2.30;;;;;;;31.38;24.58;100183.63;126869;1099;101791;-78
2022/06/20 09:52:45;;;;;;;4.63;1.70;;;;;;;31.39;24.32;100166.41;126721;1098;104287;-79
2022/06/20 09:55:43;;;;;;;5.17;2.20;;;;;;;31.35;22.91;100181.95;125709;1098;104293;-79
2022/06/20 09:58:31;;;;;;;2.07;1.87;;;;;;;31.35;23.71;100177.42;124937;1098;104230;-77
2022/06/20 10:01:11;;;;;;;2.17;1.77;;;;;;;31.41;23.70;100165.34;125159;1099;104157;-80
2022/06/20 10:04:05;;;;;;;1.80;1.70;;;;;;;31.33;23.21;100152.22;126248;1099;103020;-79
2022/06/20 10:06:45;;;;;;;6.43;1.80;;;;;;;31.24;23.16;100160.00;125189;1099;104160;-78
2022/06/20 10:09:32;;;;;;;2.80;1.93;;;;;;;31.31;23.21;100158.71;125327;1099;103364;-79
2022/06/20 10:12:21;;;;;;;2.10;1.90;;;;;;;31.41;23.49;100159.05;117634;1099;10001305;-79
2022/06/20 10:15:05;;;;;;;6.00;2.57;;;;;;;31.43;23.65;100141.75;125196;1099;120001;-79
2022/06/20 10:17:54;;;;;;;8.10;2.37;;;;;;;31.50;23.31;100132.28;125026;1099;104297;-78
2022/06/20 10:20:51;;;;;;;2.70;2.03;;;;;;;31.55;24.10;100134.77;125229;1099;102592;-78
2022/06/20 10:23:51;;;;;;;3.20;1.87;;;;;;;31.49;23.71;100121.53;126297;1099;103901;-79
2022/06/20 10:26:47;;;;;;;5.17;2.10;;;;;;;31.58;23.58;100129.16;125321;1099;103492;-77
2022/06/20 10:29:41;;;;;;;2.43;1.67;;;;;;;31.56;23.67;100114.83;125329;1099;104179;-78
2022/06/20 10:32:20;;;;;;;2.60;2.00;;;;;;;31.62;23.75;100121.72;126304;1099;102085;-80
2022/06/20 10:35:17;;;;;;;4.07;1.97;;;;;;;31.69;23.57;100125.83;126299;1098;104214;-80
2022/06/20 10:38:15;;;;;;;4.97;2.27;;;;;;;31.76;23.67;100116.38;126332;1099;104264;-81
2022/06/20 10:44:42;;;;;;;2.60;1.80;;;;;;;31.71;23.27;100119.37;125551;1102;104258;-81
2022/06/20 10:47:42;;;;;;;4.00;1.90;;;;;;;31.75;23.26;100100.20;125479;1102;104351;-81
2022/06/20 10:50:53;;;;;;;4.07;1.87;;;;;;;31.83;23.42;100109.61;125397;1102;104423;-81
2022/06/20 10:53:44;;;;;;;3.87;1.97;;;;;;;31.83;23.08;100116.89;125374;1103;103264;-80
2022/06/20 10:56:45;;;;;;;3.33;1.87;;;;;;;31.84;22.93;100110.51;125402;1102;103066;-79
2022/06/20 10:59:45;;;;;;;2.23;2.00;;;;;;;31.86;23.05;100106.72;125369;1101;102856;-81
2022/06/20 11:03:07;;;;;;;2.43;2.17;;;;;;;31.88;22.69;100104.81;125368;1102;104208;-80
2022/06/20 11:05:58;;;;;;;6.00;2.30;;;;;;;31.86;23.14;100100.43;125602;1102;104358;-80
2022/06/20 11:09:10;;;;;;;4.33;2.30;;;;;;;31.83;23.13;100112.32;125337;1102;104935;-81
2022/06/20 11:12:13;;;;;;;2.10;2.00;;;;;;;31.82;23.02;100096.14;125673;1102;102625;-79
2022/06/20 11:15:12;;;;;;;5.07;2.10;;;;;;;31.78;23.02;100087.32;125662;1101;104018;-82
2022/06/20 11:18:25;;;;;;;4.23;2.20;;;;;;;31.75;23.04;100082.08;126058;1099;104226;-82
2022/06/20 11:21:36;;;;;;;4.30;2.12;;;;;;;31.80;23.33;100076.38;126634;1099;102185;-80
2022/06/20 11:24:42;;;;;;;4.10;2.10;;;;;;;31.77;22.60;100073.84;126926;1099;102072;-81
2022/06/20 11:27:51;;;;;;;3.33;2.10;;;;;;;31.81;23.49;100070.86;126388;1099;104211;-80
2022/06/20 11:30:46;;;;;;;4.47;1.87;;;;;;;31.87;23.01;100065.08;126134;1099;104223;-79
2022/06/20 11:36:54;;;;;;;2.75;1.85;;;;;;;31.94;22.37;100073.70;126136;1099;102762;-79
2022/06/20 11:40:11;;;;;;;4.07;2.17;;;;;;;31.94;22.43;100075.55;126242;1099;103211;-80
2022/06/20 11:43:14;;;;;;;5.40;1.92;;;;;;;31.88;22.58;100061.41;125350;1103;102243;-78
2022/06/20 11:49:32;;;;;;;3.53;2.00;;;;;;;31.83;22.22;100049.94;125275;1102;104153;-78
2022/06/20 11:52:26;;;;;;;3.00;2.00;;;;;;;31.84;21.69;100050.83;125123;1102;103032;-78
2022/06/20 11:55:35;;;;;;;2.20;2.00;;;;;;;31.84;21.93;100054.41;125344;1102;104261;-77
2022/06/20 11:58:34;;;;;;;3.27;2.10;;;;;;;31.80;21.41;100041.12;125274;1102;104319;-76
2022/06/20 12:01:17;;;;;;;2.33;1.90;;;;;;;31.80;21.79;100041.98;125517;1102;102505;-74
2022/06/20 12:04:02;;;;;;;;;;;;;;;31.77;20.75;100033.17;124353;1102;104531;-77
2022/06/20 12:10:48;;;;;;;6.27;2.00;;;;;;;31.92;21.51;100036.80;124170;1105;102520;-78
2022/06/20 12:25:11;;;;;;;4.63;2.70;;;;;;;32.02;22.08;100010.84;125470;1099;104236;-76
2022/06/20 12:28:21;;;;;;;4.60;2.60;;;;;;;31.99;22.16;100009.20;125935;1099;104281;-76
2022/06/20 12:31:27;;;;;;;4.33;2.20;;;;;;;31.99;22.12;99998.36;125051;1099;104201;-78
2022/06/20 12:34:19;;;;;;;7.10;1.80;;;;;;;31.94;22.14;100005.02;127022;1098;102677;-80
2022/06/20 12:37:16;;;;;;;4.67;2.30;;;;;;;31.88;22.30;100003.55;126051;1099;104313;-78
2022/06/20 12:40:25;;;;;;;3.90;1.90;;;;;;;31.90;22.34;99994.36;125846;1098;104297;-79
2022/06/20 12:43:38;;;;;;;;;;;;;;;;;;;;;
2022/06/20 12:46:55;;;;;;;;;;;;;;;;;;;;;
2022/06/20 12:50:04;;;;;;;5.47;1.60;;;;;;;31.93;21.69;99992.41;125050;1099;118762;-77
2022/06/20 12:53:21;;;;;;;5.03;1.80;;;;;;;31.95;21.75;99985.07;125937;1099;103142;-80
2022/06/20 12:56:40;;;;;;;2.10;1.90;;;;;;;31.95;21.24;99991.36;125520;1102;103018;-80
2022/06/20 13:00:25;;;;;;;3.00;2.27;;;;;;;31.89;21.23;99976.32;125987;1102;104174;-79
2022/06/20 13:15:32;;;;;;;4.10;1.80;;;;;;;31.97;21.09;99974.98;125823;1102;102388;-81
2022/06/20 13:18:32;;;;;;;2.33;2.10;;;;;;;31.92;21.35;99971.70;125024;1103;108676;-77
2022/06/20 13:21:27;;;;;;;3.73;1.90;;;;;;;31.89;21.34;99965.47;124310;1106;104363;-77
2022/06/20 13:24:24;;;;;;;7.55;1.80;;;;;;;31.90;21.40;99961.80;124366;1102;104321;-78
2022/06/20 13:27:52;;;;;;;;;;;;;;;;;;;;;
2022/06/20 13:31:01;;;;;;;7.00;2.30;;;;;;;31.90;21.34;99952.80;124298;1102;104345;-78
2022/06/20 13:33:51;;;;;;;3.80;2.17;;;;;;;31.84;21.29;99945.91;125500;1102;104159;-79